createdAt,value
2019-04-23T00:00:03.418Z,15.30
2019-04-23T00:02:44.417Z,15.50
2019-04-23T00:04:55.577Z,15.30
2019-04-23T00:07:35.723Z,15.40
2019-04-23T00:10:01.273Z,15.30
2019-04-23T00:12:36.087Z,14.80
2019-04-23T00:17:22.660Z,14.20
2019-04-23T00:19:47.285Z,13.90
2019-04-23T00:22:20.668Z,14.10
2019-04-23T00:25:19.095Z,14.10
2019-04-23T00:27:24.043Z,14.40
2019-04-23T00:29:48.368Z,14.10
2019-04-23T00:32:18.418Z,14.30
2019-04-23T00:34:42.492Z,14.30
2019-04-23T00:37:12.459Z,14.60
2019-04-23T00:39:41.044Z,14.30
2019-04-23T00:42:10.472Z,14.50
2019-04-23T00:44:45.930Z,14.70
2019-04-23T00:47:14.302Z,14.60
2019-04-23T00:49:46.305Z,14.60
2019-04-23T00:52:17.173Z,14.60
2019-04-23T00:54:46.840Z,14.70
2019-04-23T01:02:16.547Z,14.40
2019-04-23T01:04:41.814Z,14.50
2019-04-23T01:07:04.442Z,14.60
2019-04-23T01:09:42.225Z,14.00
2019-04-23T01:11:59.300Z,13.70
2019-04-23T01:14:27.468Z,13.60
2019-04-23T01:17:08.581Z,13.40
2019-04-23T01:21:39.137Z,13.20
2019-04-23T01:24:13.945Z,13.40
2019-04-23T01:27:16.753Z,13.70
2019-04-23T01:29:36.962Z,14.00
2019-04-23T01:32:02.804Z,14.50
2019-04-23T01:34:31.915Z,14.10
2019-04-23T01:36:56.377Z,14.30
2019-04-23T01:39:32.777Z,14.60
2019-04-23T01:42:04.016Z,14.60
2019-04-23T01:44:36.804Z,14.70
2019-04-23T01:47:00.815Z,14.90
2019-04-23T01:52:04.680Z,14.60
2019-04-23T01:54:30.374Z,14.80
2019-04-23T01:57:03.703Z,14.70
2019-04-23T02:01:58.373Z,14.80
2019-04-23T02:07:00.885Z,14.60
2019-04-23T02:09:36.472Z,14.30
2019-04-23T02:11:57.223Z,14.50
2019-04-23T02:14:29.659Z,14.80
2019-04-23T02:16:57.423Z,14.60
2019-04-23T02:19:25.437Z,14.90
2019-04-23T02:24:27.774Z,14.80
2019-04-23T02:26:48.577Z,15.00
2019-04-23T02:29:36.359Z,14.60
2019-04-23T02:34:52.253Z,14.30
2019-04-23T02:37:35.269Z,14.40
2019-04-23T02:39:29.189Z,14.20
2019-04-23T02:46:59.356Z,14.00
2019-04-23T02:49:40.611Z,14.10
2019-04-23T02:52:02.910Z,14.30
2019-04-23T02:54:46.508Z,14.40
2019-04-23T02:59:42.287Z,14.30
2019-04-23T03:02:05.792Z,14.40
2019-04-23T03:07:01.211Z,14.20
2019-04-23T03:09:43.505Z,14.10
2019-04-23T03:12:02.638Z,14.30
2019-04-23T03:14:35.676Z,14.10
2019-04-23T03:16:56.346Z,14.40
2019-04-23T03:22:01.596Z,14.00
2019-04-23T03:24:45.827Z,14.20
2019-04-23T03:29:31.683Z,13.60
2019-04-23T03:39:37.396Z,13.90
2019-04-23T03:41:54.421Z,14.00
2019-04-23T03:44:29.923Z,14.00
2019-04-23T03:46:52.883Z,13.90
2019-04-23T03:49:19.469Z,13.60
2019-04-23T03:51:58.250Z,13.60
2019-04-23T03:57:12.566Z,13.80
2019-04-23T03:59:34.919Z,13.60
2019-04-23T04:09:26.001Z,13.80
2019-04-23T04:11:43.204Z,13.90
2019-04-23T04:14:21.107Z,13.60
2019-04-23T04:19:16.564Z,13.70
2019-04-23T04:21:40.866Z,13.80
2019-04-23T04:26:49.150Z,13.80
2019-04-23T04:31:42.891Z,13.70
2019-04-23T04:36:45.910Z,12.90
2019-04-23T04:38:59.034Z,13.40
2019-04-23T04:41:36.300Z,13.50
2019-04-23T04:49:05.528Z,13.40
2019-04-23T04:54:01.086Z,13.70
2019-04-23T04:56:29.145Z,13.70
2019-04-23T04:59:08.876Z,14.00
2019-04-23T05:03:45.893Z,13.30
2019-04-23T05:11:28.653Z,13.70
2019-04-23T05:14:02.275Z,13.80
2019-04-23T05:16:27.440Z,13.00
2019-04-23T05:18:56.793Z,12.60
2019-04-23T05:21:26.919Z,12.80
2019-04-23T05:26:27.020Z,13.50
2019-04-23T05:29:04.849Z,13.50
2019-04-23T05:31:27.905Z,13.60
2019-04-23T05:36:29.285Z,13.60
2019-04-23T05:43:57.274Z,13.20
2019-04-23T05:46:28.031Z,13.20
2019-04-23T05:48:52.603Z,13.60
2019-04-23T05:51:29.059Z,13.80
2019-04-23T05:53:50.951Z,14.00
2019-04-23T05:56:38.584Z,14.20
2019-04-23T05:58:58.252Z,14.20
2019-04-23T06:01:47.795Z,14.00
2019-04-23T06:03:58.252Z,14.10
2019-04-23T06:06:36.126Z,14.40
2019-04-23T06:08:53.156Z,14.30
2019-04-23T06:11:30.729Z,14.20
2019-04-23T06:14:02.196Z,13.90
2019-04-23T06:16:24.866Z,14.00
2019-04-23T06:18:57.585Z,13.70
2019-04-23T06:21:26.730Z,13.60
2019-04-23T06:23:55.676Z,13.80
2019-04-23T06:26:32.948Z,13.80
2019-04-23T06:28:59.398Z,14.00
2019-04-23T06:31:32.541Z,14.20
2019-04-23T06:34:10.849Z,14.20
2019-04-23T06:36:32.316Z,13.90
2019-04-23T06:38:56.472Z,13.90
2019-04-23T06:41:30.900Z,14.00
2019-04-23T06:44:09.314Z,13.90
2019-04-23T06:46:30.656Z,13.70
2019-04-23T06:48:57.421Z,14.00
2019-04-23T06:51:29.221Z,13.80
2019-04-23T06:53:43.153Z,14.10
2019-04-23T06:56:19.124Z,14.20
2019-04-23T06:58:43.343Z,14.20
2019-04-23T07:01:13.274Z,14.10
2019-04-23T07:03:43.285Z,14.00
2019-04-23T07:11:16.686Z,14.20
2019-04-23T07:13:46.563Z,14.10
2019-04-23T07:16:04.594Z,14.10
2019-04-23T07:18:35.882Z,13.80
2019-04-23T07:21:10.587Z,13.70
2019-04-23T07:23:46.815Z,14.10
2019-04-23T07:26:15.500Z,13.90
2019-04-23T07:28:40.059Z,13.80
2019-04-23T07:31:12.092Z,13.80
2019-04-23T07:33:39.790Z,13.90
2019-04-23T07:36:03.133Z,13.70
2019-04-23T07:38:40.874Z,13.80
2019-04-23T07:41:07.827Z,13.90
2019-04-23T07:43:32.298Z,14.10
2019-04-23T07:46:06.411Z,14.10
2019-04-23T07:55:58.607Z,13.90
2019-04-23T08:03:22.726Z,13.80
2019-04-23T08:05:44.105Z,13.90
2019-04-23T08:08:12.136Z,14.10
2019-04-23T08:11:11.004Z,14.50
2019-04-23T08:13:15.500Z,14.40
2019-04-23T08:16:02.796Z,13.80
2019-04-23T08:18:15.848Z,13.60
2019-04-23T08:20:44.648Z,13.80
2019-04-23T08:23:12.606Z,13.80
2019-04-23T08:25:45.553Z,13.90
2019-04-23T08:28:10.214Z,14.20
2019-04-23T08:30:32.651Z,13.90
2019-04-23T08:33:07.359Z,14.00
2019-04-23T08:35:33.954Z,13.50
2019-04-23T08:38:09.517Z,13.40
2019-04-23T08:40:27.659Z,13.70
2019-04-23T08:43:03.527Z,13.90
2019-04-23T08:45:35.405Z,13.80
2019-04-23T08:48:23.027Z,13.50
2019-04-23T08:50:46.592Z,13.40
2019-04-23T08:56:07.625Z,13.30
2019-04-23T09:05:58.015Z,13.00
2019-04-23T09:08:28.147Z,12.90
2019-04-23T09:18:26.330Z,13.30
2019-04-23T09:20:55.167Z,13.50
2019-04-23T09:25:57.828Z,13.70
2019-04-23T09:28:39.911Z,13.40
2019-04-23T09:31:15.873Z,12.80
2019-04-23T09:33:41.319Z,12.80
2019-04-23T09:36:06.487Z,13.00
2019-04-23T09:38:34.879Z,13.10
2019-04-23T09:41:38.084Z,13.50
2019-04-23T09:43:38.468Z,13.60
2019-04-23T09:46:15.086Z,13.60
2019-04-23T09:48:44.279Z,13.70
2019-04-23T09:51:14.863Z,13.80
2019-04-23T09:53:34.249Z,14.20
2019-04-23T09:56:28.562Z,14.10
2019-04-23T09:58:51.827Z,14.10
2019-04-23T10:01:39.365Z,14.00
2019-04-23T10:03:47.563Z,13.80
2019-04-23T10:06:12.651Z,14.00
2019-04-23T10:08:36.424Z,13.40
2019-04-23T10:11:11.251Z,13.40
2019-04-23T10:13:36.415Z,13.50
2019-04-23T10:16:10.279Z,13.20
2019-04-23T10:18:39.293Z,13.20
2019-04-23T10:21:11.083Z,13.30
2019-04-23T10:23:47.532Z,13.20
2019-04-23T10:26:17.829Z,13.60
2019-04-23T10:28:45.615Z,13.50
2019-04-23T10:31:16.777Z,13.50
2019-04-23T10:33:44.011Z,13.60
2019-04-23T10:36:17.495Z,13.70
2019-04-23T10:38:51.539Z,13.40
2019-04-23T10:41:16.164Z,13.50
2019-04-23T10:43:46.450Z,13.40
2019-04-23T10:46:36.371Z,13.40
2019-04-23T10:49:31.607Z,13.50
2019-04-23T10:51:53.478Z,13.10
2019-04-23T10:54:32.895Z,12.90
2019-04-23T10:59:19.389Z,12.60
2019-04-23T11:02:02.581Z,12.80
2019-04-23T11:04:36.016Z,12.90
2019-04-23T11:06:47.292Z,13.10
2019-04-23T11:09:36.555Z,13.20
2019-04-23T11:11:52.595Z,13.30
2019-04-23T11:14:25.270Z,13.60
2019-04-23T11:16:59.833Z,13.80
2019-04-23T11:19:27.701Z,13.90
2019-04-23T11:22:10.180Z,13.40
2019-04-23T11:26:55.850Z,13.30
2019-04-23T11:29:27.622Z,13.30
2019-04-23T11:32:31.330Z,13.80
2019-04-23T11:38:32.624Z,13.20
2019-04-23T11:39:30.985Z,13.30
2019-04-23T11:42:14.229Z,13.70
2019-04-23T11:44:36.518Z,13.50
2019-04-23T11:49:44.987Z,13.40
2019-04-23T11:52:01.688Z,13.40
2019-04-23T11:54:56.157Z,13.40
2019-04-23T12:00:05.544Z,12.80
2019-04-23T12:02:44.783Z,12.30
2019-04-23T12:05:20.700Z,12.70
2019-04-23T12:07:37.542Z,12.80
2019-04-23T12:12:44.758Z,12.80
2019-04-23T12:15:30.441Z,12.20
2019-04-23T12:17:47.373Z,12.30
2019-04-23T12:25:19.788Z,13.10
2019-04-23T12:30:14.743Z,13.10
2019-04-23T12:35:18.671Z,13.40
2019-04-23T12:40:15.377Z,12.70
2019-04-23T12:45:21.756Z,12.80
2019-04-23T12:47:53.574Z,12.90
2019-04-23T12:57:50.674Z,13.40
2019-04-23T13:00:29.574Z,13.50
2019-04-23T13:03:14.301Z,13.30
2019-04-23T13:05:27.052Z,13.30
2019-04-23T13:08:15.795Z,13.40
2019-04-23T13:15:34.568Z,13.40
2019-04-23T13:18:20.319Z,13.40
2019-04-23T13:20:33.582Z,13.60
2019-04-23T13:23:15.199Z,13.90
2019-04-23T13:25:39.936Z,13.70
2019-04-23T13:28:19.703Z,13.80
2019-04-23T13:38:15.859Z,13.20
2019-04-23T13:40:46.490Z,13.00
2019-04-23T13:43:27.997Z,12.70
2019-04-23T13:45:59.210Z,12.40
2019-04-23T13:48:17.993Z,12.40
2019-04-23T13:55:52.946Z,12.40
2019-04-23T13:58:23.511Z,12.60
2019-04-23T14:01:01.040Z,13.20
2019-04-23T14:03:32.224Z,13.70
2019-04-23T14:05:59.547Z,13.90
2019-04-23T14:08:33.059Z,13.50
2019-04-23T14:16:04.482Z,13.80
2019-04-23T14:20:55.362Z,13.50
2019-04-23T14:23:37.659Z,12.70
2019-04-23T14:28:37.379Z,12.00
2019-04-23T14:33:46.824Z,12.90
2019-04-23T14:36:00.183Z,13.00
2019-04-23T14:38:40.346Z,13.40
2019-04-23T14:41:12.471Z,13.40
2019-04-23T14:43:31.386Z,13.40
2019-04-23T14:46:27.029Z,13.10
2019-04-23T14:49:01.296Z,12.50
2019-04-23T14:51:32.299Z,12.30
2019-04-23T14:54:08.670Z,12.60
2019-04-23T14:56:39.075Z,12.60
2019-04-23T14:59:06.792Z,13.10
2019-04-23T15:01:58.251Z,13.20
2019-04-23T15:04:05.638Z,13.10
2019-04-23T15:06:43.686Z,13.20
2019-04-23T15:09:22.406Z,12.80
2019-04-23T15:11:48.875Z,12.50
2019-04-23T15:14:17.794Z,12.60
2019-04-23T15:19:36.563Z,13.10
2019-04-23T15:22:03.282Z,13.60
2019-04-23T15:24:30.366Z,13.50
2019-04-23T15:27:56.473Z,13.80
2019-04-23T15:28:57.123Z,13.70
2019-04-23T15:36:58.136Z,13.70
2019-04-23T15:42:12.570Z,13.80
2019-04-23T15:44:13.238Z,14.10
2019-04-23T15:49:17.840Z,14.30
2019-04-23T15:51:48.811Z,14.00
2019-04-23T15:54:13.812Z,14.00
2019-04-23T15:59:20.993Z,13.70
2019-04-23T16:01:37.706Z,13.30
2019-04-23T16:03:49.275Z,13.70
2019-04-23T16:06:22.050Z,13.90
2019-04-23T16:14:28.706Z,13.50
2019-04-23T16:19:24.104Z,13.60
2019-04-23T16:24:22.160Z,14.00
2019-04-23T16:26:51.011Z,14.30
2019-04-23T16:29:26.029Z,14.30
2019-04-23T16:32:00.132Z,13.90
2019-04-23T16:34:13.893Z,13.90
2019-04-23T16:36:41.361Z,14.00
2019-04-23T16:39:09.096Z,14.20
2019-04-23T16:41:30.867Z,13.70
2019-04-23T16:44:06.275Z,13.80
2019-04-23T16:46:54.156Z,13.90
2019-04-23T16:49:09.034Z,13.70
2019-04-23T16:51:27.885Z,13.70
2019-04-23T16:54:03.045Z,13.60
2019-04-23T16:56:26.054Z,13.80
2019-04-23T16:59:02.063Z,14.10
2019-04-23T17:01:20.937Z,14.00
2019-04-23T17:04:11.783Z,13.90
2019-04-23T17:06:18.630Z,14.00
2019-04-23T17:13:44.706Z,14.00
2019-04-23T17:16:18.224Z,14.00
2019-04-23T17:18:41.839Z,13.90
2019-04-23T17:21:24.182Z,13.80
2019-04-23T17:28:41.086Z,13.20
2019-04-23T17:31:22.237Z,13.00
2019-04-23T17:33:35.352Z,13.20
2019-04-23T17:36:16.694Z,13.30
2019-04-23T17:38:33.666Z,13.80
2019-04-23T17:41:01.187Z,13.80
2019-04-23T17:43:26.470Z,13.90
2019-04-23T17:45:57.006Z,14.10
2019-04-23T17:48:21.963Z,14.20
2019-04-23T17:50:56.728Z,14.20
2019-04-23T17:58:24.912Z,14.20
2019-04-23T18:00:51.891Z,14.00
2019-04-23T18:03:20.043Z,13.90
2019-04-23T18:05:52.340Z,13.60
2019-04-23T18:08:15.533Z,13.90
2019-04-23T18:10:49.623Z,13.90
2019-04-23T18:13:04.427Z,14.10
2019-04-23T18:15:38.097Z,14.10
2019-04-23T18:20:39.792Z,14.10
2019-04-23T18:23:06.670Z,13.70
2019-04-23T18:25:32.346Z,13.70
2019-04-23T18:28:01.688Z,13.70
2019-04-23T18:30:26.202Z,13.80
2019-04-23T18:35:27.961Z,13.80
2019-04-23T18:40:27.436Z,13.90
2019-04-23T18:42:57.682Z,13.90
2019-04-23T18:45:22.883Z,13.60
2019-04-23T18:47:52.022Z,13.60
2019-04-23T18:50:24.681Z,13.70
2019-04-23T18:52:55.885Z,14.10
2019-04-23T18:55:24.365Z,14.20
2019-04-23T18:57:45.772Z,13.90
2019-04-23T19:00:21.975Z,14.20
2019-04-23T19:02:52.274Z,14.00
2019-04-23T19:05:30.883Z,14.10
2019-04-23T19:07:51.679Z,13.90
2019-04-23T19:10:29.265Z,13.80
2019-04-23T19:12:44.390Z,13.80
2019-04-23T19:20:21.378Z,13.50
2019-04-23T19:22:46.574Z,13.30
2019-04-23T19:27:38.883Z,13.50
2019-04-23T19:30:05.373Z,13.50
2019-04-23T19:32:42.728Z,13.60
2019-04-23T19:35:07.070Z,13.40
2019-04-23T19:37:43.632Z,13.40
2019-04-23T19:40:00.984Z,13.40
2019-04-23T19:42:36.770Z,13.30
2019-04-23T19:44:53.821Z,12.80
2019-04-23T19:47:37.517Z,12.90
2019-04-23T19:50:02.173Z,13.30
2019-04-23T19:52:36.599Z,12.80
2019-04-23T19:55:07.852Z,12.90
2019-04-23T20:12:25.911Z,13.80
2019-04-23T20:14:52.030Z,13.80
2019-04-23T20:22:29.118Z,14.00
2019-04-23T20:34:51.507Z,14.00
2019-04-23T20:37:31.250Z,14.00
2019-04-23T20:39:45.422Z,14.00
2019-04-23T20:42:18.199Z,13.90
2019-04-23T20:47:15.829Z,14.10
2019-04-23T20:49:48.947Z,14.20
2019-04-23T20:52:28.947Z,14.30
2019-04-23T20:59:57.226Z,14.00
2019-04-23T21:02:41.593Z,14.10
2019-04-23T21:05:03.525Z,14.10
2019-04-23T21:07:42.965Z,14.10
2019-04-23T21:10:08.916Z,13.90
2019-04-23T21:12:43.207Z,14.10
2019-04-23T21:15:08.760Z,14.10
2019-04-23T21:17:40.222Z,14.00
2019-04-23T21:20:08.507Z,14.00
2019-04-23T21:22:51.879Z,14.30
2019-04-23T21:24:51.265Z,14.10
2019-04-23T21:30:00.609Z,14.10
2019-04-23T21:32:35.290Z,14.20
2019-04-23T21:35:05.296Z,14.00
2019-04-23T21:37:37.377Z,14.10
2019-04-23T21:40:32.551Z,13.90
2019-04-23T21:42:35.649Z,13.50
2019-04-23T21:44:53.943Z,13.30
2019-04-23T21:47:15.296Z,13.10
2019-04-23T21:50:03.264Z,13.20
2019-04-23T21:52:28.626Z,13.20
2019-04-23T21:57:42.068Z,13.30
2019-04-23T22:02:36.426Z,13.60
2019-04-23T22:05:16.844Z,13.60
2019-04-23T22:07:38.869Z,13.60
2019-04-23T22:12:33.508Z,13.10
2019-04-23T22:14:55.365Z,13.40
2019-04-23T22:17:32.642Z,13.50
2019-04-23T22:22:45.496Z,13.30
2019-04-23T22:24:59.269Z,13.20
2019-04-23T22:27:24.309Z,13.30
2019-04-23T22:29:51.322Z,13.50
2019-04-23T22:32:34.319Z,13.40
2019-04-23T22:34:55.983Z,13.40
2019-04-23T22:37:23.813Z,13.30
2019-04-23T22:39:54.149Z,12.80
2019-04-23T22:47:13.591Z,13.50
2019-04-23T22:50:04.342Z,13.50
2019-04-23T22:52:23.094Z,13.40
2019-04-23T22:55:02.197Z,13.60
2019-04-23T22:57:17.324Z,13.20
2019-04-23T23:00:03.112Z,13.40
2019-04-23T23:02:25.513Z,13.50
2019-04-23T23:05:07.271Z,13.60
2019-04-23T23:07:28.266Z,13.80
2019-04-23T23:10:00.854Z,13.60
2019-04-23T23:12:33.497Z,13.80
2019-04-23T23:15:06.899Z,13.60
2019-04-23T23:17:30.587Z,13.60
2019-04-23T23:20:12.246Z,13.70
2019-04-23T23:22:27.290Z,13.80
2019-04-23T23:25:06.636Z,13.90
2019-04-23T23:27:32.376Z,13.90
2019-04-23T23:30:05.236Z,13.90
2019-04-23T23:35:08.243Z,13.50
2019-04-23T23:37:24.569Z,13.50
2019-04-23T23:40:02.398Z,13.60
2019-04-23T23:44:56.175Z,13.80
2019-04-23T23:47:29.777Z,13.90
2019-04-23T23:49:59.043Z,13.70
2019-04-23T23:52:12.959Z,13.70
2019-04-23T23:54:45.344Z,13.70
2019-04-23T23:59:57.432Z,13.80
